sensor_id;sensor_type;location;lat;lon;timestamp;P1;durP1;ratioP1;P2;durP2;ratioP2
80705;SDS011;70229;48.010;7.852;2023-07-13T00:01:47;2.33;;;0.82;;
80705;SDS011;70229;48.010;7.852;2023-07-13T00:04:15;8.95;;;1.35;;
80705;SDS011;70229;48.010;7.852;2023-07-13T00:06:43;3.85;;;1.30;;
80705;SDS011;70229;48.010;7.852;2023-07-13T00:09:15;3.22;;;1.15;;
80705;SDS011;70229;48.010;7.852;2023-07-13T00:11:42;0.88;;;0.50;;
80705;SDS011;70229;48.010;7.852;2023-07-13T00:14:08;1.70;;;0.73;;
80705;SDS011;70229;48.010;7.852;2023-07-13T00:16:35;2.13;;;0.80;;
80705;SDS011;70229;48.010;7.852;2023-07-13T00:19:02;2.22;;;0.85;;
80705;SDS011;70229;48.010;7.852;2023-07-13T00:21:28;3.72;;;1.15;;
80705;SDS011;70229;48.010;7.852;2023-07-13T00:23:54;1.88;;;1.00;;
80705;SDS011;70229;48.010;7.852;2023-07-13T00:26:20;1.25;;;0.65;;
80705;SDS011;70229;48.010;7.852;2023-07-13T00:28:45;3.88;;;1.00;;
80705;SDS011;70229;48.010;7.852;2023-07-13T00:31:11;4.82;;;1.13;;
80705;SDS011;70229;48.010;7.852;2023-07-13T00:33:39;4.60;;;1.13;;
80705;SDS011;70229;48.010;7.852;2023-07-13T00:36:05;5.78;;;1.35;;
80705;SDS011;70229;48.010;7.852;2023-07-13T00:38:30;4.03;;;1.15;;
80705;SDS011;70229;48.010;7.852;2023-07-13T00:40:56;4.03;;;1.30;;
80705;SDS011;70229;48.010;7.852;2023-07-13T00:43:22;4.35;;;1.45;;
80705;SDS011;70229;48.010;7.852;2023-07-13T00:48:17;2.95;;;1.10;;
80705;SDS011;70229;48.010;7.852;2023-07-13T00:50:46;3.33;;;1.30;;
80705;SDS011;70229;48.010;7.852;2023-07-13T00:53:14;3.50;;;1.60;;
80705;SDS011;70229;48.010;7.852;2023-07-13T00:55:41;3.00;;;1.42;;
80705;SDS011;70229;48.010;7.852;2023-07-13T00:58:07;2.38;;;1.08;;
80705;SDS011;70229;48.010;7.852;2023-07-13T01:00:36;3.03;;;1.05;;
80705;SDS011;70229;48.010;7.852;2023-07-13T01:03:04;3.58;;;1.20;;
80705;SDS011;70229;48.010;7.852;2023-07-13T01:05:30;3.85;;;1.80;;
80705;SDS011;70229;48.010;7.852;2023-07-13T01:07:58;5.47;;;1.25;;
80705;SDS011;70229;48.010;7.852;2023-07-13T01:10:25;4.05;;;1.10;;
80705;SDS011;70229;48.010;7.852;2023-07-13T01:12:51;2.00;;;0.93;;
80705;SDS011;70229;48.010;7.852;2023-07-13T01:18:07;6.47;;;1.38;;
80705;SDS011;70229;48.010;7.852;2023-07-13T01:20:35;1.80;;;0.85;;
80705;SDS011;70229;48.010;7.852;2023-07-13T01:23:05;2.28;;;1.02;;
80705;SDS011;70229;48.010;7.852;2023-07-13T01:25:34;5.15;;;1.48;;
80705;SDS011;70229;48.010;7.852;2023-07-13T01:28:01;2.60;;;1.40;;
80705;SDS011;70229;48.010;7.852;2023-07-13T01:30:28;1.40;;;0.85;;
80705;SDS011;70229;48.010;7.852;2023-07-13T01:32:54;2.72;;;1.02;;
80705;SDS011;70229;48.010;7.852;2023-07-13T01:35:19;4.95;;;1.10;;
80705;SDS011;70229;48.010;7.852;2023-07-13T01:37:45;2.42;;;1.10;;
80705;SDS011;70229;48.010;7.852;2023-07-13T01:40:11;2.65;;;0.95;;
80705;SDS011;70229;48.010;7.852;2023-07-13T01:42:37;2.47;;;0.85;;
80705;SDS011;70229;48.010;7.852;2023-07-13T01:45:03;2.50;;;1.23;;
80705;SDS011;70229;48.010;7.852;2023-07-13T01:47:29;3.58;;;0.95;;
80705;SDS011;70229;48.010;7.852;2023-07-13T01:49:56;2.72;;;0.90;;
80705;SDS011;70229;48.010;7.852;2023-07-13T01:52:22;6.60;;;1.02;;
80705;SDS011;70229;48.010;7.852;2023-07-13T01:54:47;2.35;;;0.95;;
80705;SDS011;70229;48.010;7.852;2023-07-13T01:57:13;2.35;;;0.77;;
80705;SDS011;70229;48.010;7.852;2023-07-13T01:59:38;7.65;;;1.48;;
80705;SDS011;70229;48.010;7.852;2023-07-13T02:02:04;1.50;;;0.80;;
80705;SDS011;70229;48.010;7.852;2023-07-13T02:04:30;2.95;;;1.08;;
80705;SDS011;70229;48.010;7.852;2023-07-13T02:06:55;1.48;;;0.82;;
80705;SDS011;70229;48.010;7.852;2023-07-13T02:09:21;1.27;;;0.77;;
80705;SDS011;70229;48.010;7.852;2023-07-13T02:11:47;7.50;;;1.42;;
80705;SDS011;70229;48.010;7.852;2023-07-13T02:14:13;2.50;;;0.82;;
80705;SDS011;70229;48.010;7.852;2023-07-13T02:16:40;2.78;;;0.82;;
80705;SDS011;70229;48.010;7.852;2023-07-13T02:19:07;3.97;;;1.20;;
80705;SDS011;70229;48.010;7.852;2023-07-13T02:21:32;2.80;;;1.38;;
80705;SDS011;70229;48.010;7.852;2023-07-13T02:23:58;6.30;;;1.30;;
80705;SDS011;70229;48.010;7.852;2023-07-13T02:26:24;3.33;;;1.10;;
80705;SDS011;70229;48.010;7.852;2023-07-13T02:28:50;1.40;;;0.80;;
80705;SDS011;70229;48.010;7.852;2023-07-13T02:31:16;3.22;;;1.15;;
80705;SDS011;70229;48.010;7.852;2023-07-13T02:33:42;2.88;;;1.15;;
80705;SDS011;70229;48.010;7.852;2023-07-13T02:36:08;2.25;;;0.95;;
80705;SDS011;70229;48.010;7.852;2023-07-13T02:38:34;1.83;;;0.93;;
80705;SDS011;70229;48.010;7.852;2023-07-13T02:41:01;2.33;;;1.13;;
80705;SDS011;70229;48.010;7.852;2023-07-13T02:43:31;2.25;;;1.35;;
80705;SDS011;70229;48.010;7.852;2023-07-13T02:45:56;2.92;;;0.82;;
80705;SDS011;70229;48.010;7.852;2023-07-13T02:48:28;3.33;;;0.95;;
80705;SDS011;70229;48.010;7.852;2023-07-13T02:50:54;3.40;;;1.30;;
80705;SDS011;70229;48.010;7.852;2023-07-13T02:53:20;3.92;;;1.45;;
80705;SDS011;70229;48.010;7.852;2023-07-13T02:55:46;5.25;;;1.48;;
80705;SDS011;70229;48.010;7.852;2023-07-13T02:58:12;3.13;;;1.42;;
80705;SDS011;70229;48.010;7.852;2023-07-13T03:00:41;7.90;;;1.48;;
80705;SDS011;70229;48.010;7.852;2023-07-13T03:03:07;3.47;;;1.00;;
80705;SDS011;70229;48.010;7.852;2023-07-13T03:05:33;3.13;;;0.82;;
80705;SDS011;70229;48.010;7.852;2023-07-13T03:07:59;5.07;;;1.30;;
80705;SDS011;70229;48.010;7.852;2023-07-13T03:10:24;2.92;;;1.15;;
80705;SDS011;70229;48.010;7.852;2023-07-13T03:12:50;3.30;;;1.30;;
80705;SDS011;70229;48.010;7.852;2023-07-13T03:15:16;1.90;;;0.90;;
80705;SDS011;70229;48.010;7.852;2023-07-13T03:17:41;6.07;;;1.20;;
80705;SDS011;70229;48.010;7.852;2023-07-13T03:20:07;2.22;;;0.93;;
80705;SDS011;70229;48.010;7.852;2023-07-13T03:22:33;3.10;;;1.17;;
80705;SDS011;70229;48.010;7.852;2023-07-13T03:24:58;5.40;;;1.00;;
80705;SDS011;70229;48.010;7.852;2023-07-13T03:27:24;3.03;;;1.00;;
80705;SDS011;70229;48.010;7.852;2023-07-13T03:29:49;3.50;;;1.00;;
80705;SDS011;70229;48.010;7.852;2023-07-13T03:32:15;2.25;;;1.25;;
80705;SDS011;70229;48.010;7.852;2023-07-13T03:34:40;4.05;;;1.08;;
80705;SDS011;70229;48.010;7.852;2023-07-13T03:37:06;6.43;;;1.25;;
80705;SDS011;70229;48.010;7.852;2023-07-13T03:39:31;4.38;;;1.02;;
80705;SDS011;70229;48.010;7.852;2023-07-13T03:41:57;3.20;;;1.00;;
80705;SDS011;70229;48.010;7.852;2023-07-13T03:44:22;2.40;;;1.10;;
80705;SDS011;70229;48.010;7.852;2023-07-13T03:46:48;2.88;;;1.13;;
80705;SDS011;70229;48.010;7.852;2023-07-13T03:49:13;3.13;;;1.15;;
80705;SDS011;70229;48.010;7.852;2023-07-13T03:51:39;2.05;;;0.90;;
80705;SDS011;70229;48.010;7.852;2023-07-13T03:54:04;2.92;;;1.00;;
80705;SDS011;70229;48.010;7.852;2023-07-13T03:56:31;2.42;;;0.90;;
80705;SDS011;70229;48.010;7.852;2023-07-13T03:58:58;2.17;;;1.15;;
80705;SDS011;70229;48.010;7.852;2023-07-13T04:01:24;9.07;;;1.83;;
80705;SDS011;70229;48.010;7.852;2023-07-13T04:03:50;5.32;;;1.33;;
80705;SDS011;70229;48.010;7.852;2023-07-13T04:06:17;2.95;;;1.02;;
80705;SDS011;70229;48.010;7.852;2023-07-13T04:08:46;2.90;;;1.17;;
80705;SDS011;70229;48.010;7.852;2023-07-13T04:11:23;2.85;;;1.52;;
80705;SDS011;70229;48.010;7.852;2023-07-13T04:13:51;3.40;;;1.33;;
80705;SDS011;70229;48.010;7.852;2023-07-13T04:16:17;3.28;;;1.08;;
80705;SDS011;70229;48.010;7.852;2023-07-13T04:18:44;6.47;;;1.40;;
80705;SDS011;70229;48.010;7.852;2023-07-13T04:21:10;2.75;;;1.20;;
80705;SDS011;70229;48.010;7.852;2023-07-13T04:23:36;2.97;;;1.13;;
80705;SDS011;70229;48.010;7.852;2023-07-13T04:26:02;3.72;;;1.52;;
80705;SDS011;70229;48.010;7.852;2023-07-13T04:28:28;2.35;;;1.20;;
80705;SDS011;70229;48.010;7.852;2023-07-13T04:30:53;4.00;;;1.30;;
80705;SDS011;70229;48.010;7.852;2023-07-13T04:33:20;3.13;;;1.45;;
80705;SDS011;70229;48.010;7.852;2023-07-13T04:35:49;3.33;;;1.35;;
80705;SDS011;70229;48.010;7.852;2023-07-13T04:38:22;2.53;;;1.27;;
80705;SDS011;70229;48.010;7.852;2023-07-13T04:40:49;3.60;;;1.42;;
80705;SDS011;70229;48.010;7.852;2023-07-13T04:43:16;3.15;;;1.45;;
80705;SDS011;70229;48.010;7.852;2023-07-13T04:45:41;4.30;;;1.45;;
80705;SDS011;70229;48.010;7.852;2023-07-13T04:48:07;7.60;;;1.80;;
80705;SDS011;70229;48.010;7.852;2023-07-13T04:50:32;1.70;;;0.80;;
80705;SDS011;70229;48.010;7.852;2023-07-13T04:53:00;3.05;;;1.02;;
80705;SDS011;70229;48.010;7.852;2023-07-13T04:55:26;2.92;;;1.40;;
80705;SDS011;70229;48.010;7.852;2023-07-13T04:57:55;6.15;;;1.23;;
80705;SDS011;70229;48.010;7.852;2023-07-13T05:00:23;1.67;;;0.90;;
80705;SDS011;70229;48.010;7.852;2023-07-13T05:02:49;3.25;;;1.27;;
80705;SDS011;70229;48.010;7.852;2023-07-13T05:05:15;4.57;;;1.20;;
80705;SDS011;70229;48.010;7.852;2023-07-13T05:07:40;4.10;;;1.35;;
80705;SDS011;70229;48.010;7.852;2023-07-13T05:10:06;2.50;;;1.33;;
80705;SDS011;70229;48.010;7.852;2023-07-13T05:12:32;3.80;;;1.70;;
80705;SDS011;70229;48.010;7.852;2023-07-13T05:14:58;2.45;;;1.00;;
80705;SDS011;70229;48.010;7.852;2023-07-13T05:17:24;1.58;;;0.95;;
80705;SDS011;70229;48.010;7.852;2023-07-13T05:19:49;3.15;;;1.40;;
80705;SDS011;70229;48.010;7.852;2023-07-13T05:22:15;2.97;;;1.15;;
80705;SDS011;70229;48.010;7.852;2023-07-13T05:24:40;2.30;;;1.08;;
80705;SDS011;70229;48.010;7.852;2023-07-13T05:27:06;4.00;;;1.45;;
80705;SDS011;70229;48.010;7.852;2023-07-13T05:29:31;2.65;;;1.55;;
80705;SDS011;70229;48.010;7.852;2023-07-13T05:31:57;5.82;;;1.33;;
80705;SDS011;70229;48.010;7.852;2023-07-13T05:34:23;5.68;;;2.13;;
80705;SDS011;70229;48.010;7.852;2023-07-13T05:36:49;3.20;;;1.30;;
80705;SDS011;70229;48.010;7.852;2023-07-13T05:39:15;4.57;;;1.33;;
80705;SDS011;70229;48.010;7.852;2023-07-13T05:41:40;3.13;;;1.17;;
80705;SDS011;70229;48.010;7.852;2023-07-13T05:44:06;6.28;;;1.42;;
80705;SDS011;70229;48.010;7.852;2023-07-13T05:46:32;2.50;;;1.02;;
80705;SDS011;70229;48.010;7.852;2023-07-13T05:48:58;3.90;;;1.73;;
80705;SDS011;70229;48.010;7.852;2023-07-13T05:51:24;3.40;;;1.40;;
80705;SDS011;70229;48.010;7.852;2023-07-13T05:53:50;5.80;;;1.70;;
80705;SDS011;70229;48.010;7.852;2023-07-13T05:56:15;3.03;;;1.38;;
80705;SDS011;70229;48.010;7.852;2023-07-13T05:58:41;4.68;;;1.52;;
80705;SDS011;70229;48.010;7.852;2023-07-13T06:01:08;6.63;;;2.00;;
80705;SDS011;70229;48.010;7.852;2023-07-13T06:03:36;4.63;;;1.38;;
80705;SDS011;70229;48.010;7.852;2023-07-13T06:06:05;3.60;;;1.33;;
80705;SDS011;70229;48.010;7.852;2023-07-13T06:08:32;2.95;;;1.38;;
80705;SDS011;70229;48.010;7.852;2023-07-13T06:11:09;5.28;;;1.45;;
80705;SDS011;70229;48.010;7.852;2023-07-13T06:13:39;3.10;;;1.45;;
80705;SDS011;70229;48.010;7.852;2023-07-13T06:16:04;5.78;;;2.05;;
80705;SDS011;70229;48.010;7.852;2023-07-13T06:18:34;3.83;;;1.65;;
80705;SDS011;70229;48.010;7.852;2023-07-13T06:21:05;4.15;;;1.90;;
80705;SDS011;70229;48.010;7.852;2023-07-13T06:23:42;3.50;;;1.38;;
80705;SDS011;70229;48.010;7.852;2023-07-13T06:26:08;3.92;;;1.55;;
80705;SDS011;70229;48.010;7.852;2023-07-13T06:28:35;2.90;;;1.63;;
80705;SDS011;70229;48.010;7.852;2023-07-13T06:31:02;2.85;;;1.48;;
80705;SDS011;70229;48.010;7.852;2023-07-13T06:33:29;3.05;;;1.30;;
80705;SDS011;70229;48.010;7.852;2023-07-13T06:35:55;2.63;;;1.25;;
80705;SDS011;70229;48.010;7.852;2023-07-13T06:38:21;2.78;;;0.80;;
80705;SDS011;70229;48.010;7.852;2023-07-13T06:40:47;2.55;;;1.25;;
80705;SDS011;70229;48.010;7.852;2023-07-13T06:43:12;4.15;;;1.30;;
80705;SDS011;70229;48.010;7.852;2023-07-13T06:45:43;8.13;;;1.80;;
80705;SDS011;70229;48.010;7.852;2023-07-13T06:48:15;5.35;;;1.75;;
80705;SDS011;70229;48.010;7.852;2023-07-13T06:50:41;3.67;;;1.70;;
80705;SDS011;70229;48.010;7.852;2023-07-13T06:53:08;3.28;;;1.60;;
80705;SDS011;70229;48.010;7.852;2023-07-13T10:50:28;4.93;;;1.08;;
80705;SDS011;70229;48.010;7.852;2023-07-13T10:55:59;5.75;;;1.70;;
80705;SDS011;70229;48.010;7.852;2023-07-13T10:58:43;2.58;;;1.02;;
80705;SDS011;70229;48.010;7.852;2023-07-13T11:01:27;2.65;;;1.27;;
80705;SDS011;70229;48.010;7.852;2023-07-13T11:04:08;4.38;;;1.00;;
80705;SDS011;70229;48.010;7.852;2023-07-13T11:06:40;3.10;;;1.00;;
80705;SDS011;70229;48.010;7.852;2023-07-13T11:15:43;2.40;;;0.85;;
80705;SDS011;70229;48.010;7.852;2023-07-13T11:25:53;2.00;;;0.70;;
80705;SDS011;70229;48.010;7.852;2023-07-13T11:28:23;5.30;;;1.63;;
80705;SDS011;70229;48.010;7.852;2023-07-13T11:33:59;2.17;;;1.02;;
80705;SDS011;70229;48.010;7.852;2023-07-13T11:36:29;4.90;;;1.23;;
80705;SDS011;70229;48.010;7.852;2023-07-13T11:42:02;7.63;;;1.25;;
80705;SDS011;70229;48.010;7.852;2023-07-13T11:44:56;3.03;;;1.20;;
80705;SDS011;70229;48.010;7.852;2023-07-13T11:47:27;2.92;;;1.17;;
80705;SDS011;70229;48.010;7.852;2023-07-13T11:50:02;5.10;;;1.30;;
80705;SDS011;70229;48.010;7.852;2023-07-13T11:52:38;6.15;;;1.70;;
80705;SDS011;70229;48.010;7.852;2023-07-13T11:55:13;4.65;;;1.67;;
80705;SDS011;70229;48.010;7.852;2023-07-13T11:57:56;3.97;;;1.02;;
80705;SDS011;70229;48.010;7.852;2023-07-13T12:00:30;6.47;;;1.38;;
80705;SDS011;70229;48.010;7.852;2023-07-13T12:07:05;2.97;;;1.33;;
80705;SDS011;70229;48.010;7.852;2023-07-13T12:09:38;8.13;;;1.25;;
80705;SDS011;70229;48.010;7.852;2023-07-13T12:12:13;4.43;;;0.90;;
80705;SDS011;70229;48.010;7.852;2023-07-13T12:14:50;3.25;;;1.30;;
80705;SDS011;70229;48.010;7.852;2023-07-13T15:42:44;2.55;;;1.38;;
80705;SDS011;70229;48.010;7.852;2023-07-13T15:45:17;13.07;;;1.35;;
80705;SDS011;70229;48.010;7.852;2023-07-13T15:47:43;2.10;;;1.02;;
80705;SDS011;70229;48.010;7.852;2023-07-13T15:50:13;4.22;;;1.27;;
80705;SDS011;70229;48.010;7.852;2023-07-13T15:52:45;3.08;;;1.35;;
80705;SDS011;70229;48.010;7.852;2023-07-13T15:55:19;2.38;;;1.20;;
80705;SDS011;70229;48.010;7.852;2023-07-13T15:57:49;5.00;;;1.17;;
80705;SDS011;70229;48.010;7.852;2023-07-13T16:00:24;7.45;;;1.33;;
80705;SDS011;70229;48.010;7.852;2023-07-13T16:02:51;2.20;;;0.90;;
80705;SDS011;70229;48.010;7.852;2023-07-13T16:05:18;3.60;;;1.40;;
80705;SDS011;70229;48.010;7.852;2023-07-13T16:07:45;2.33;;;1.15;;
80705;SDS011;70229;48.010;7.852;2023-07-13T16:10:13;3.05;;;1.58;;
80705;SDS011;70229;48.010;7.852;2023-07-13T16:12:44;2.60;;;1.00;;
80705;SDS011;70229;48.010;7.852;2023-07-13T16:15:14;3.33;;;1.23;;
80705;SDS011;70229;48.010;7.852;2023-07-13T16:17:41;5.78;;;1.60;;
80705;SDS011;70229;48.010;7.852;2023-07-13T16:20:07;3.78;;;1.38;;
80705;SDS011;70229;48.010;7.852;2023-07-13T16:22:38;3.13;;;1.50;;
80705;SDS011;70229;48.010;7.852;2023-07-13T16:25:12;5.95;;;1.40;;
80705;SDS011;70229;48.010;7.852;2023-07-13T16:27:43;4.38;;;1.38;;
80705;SDS011;70229;48.010;7.852;2023-07-13T16:32:44;3.40;;;1.38;;
80705;SDS011;70229;48.010;7.852;2023-07-13T16:35:09;3.78;;;1.35;;
80705;SDS011;70229;48.010;7.852;2023-07-13T16:37:36;3.55;;;1.10;;
80705;SDS011;70229;48.010;7.852;2023-07-13T16:40:05;4.18;;;1.60;;
80705;SDS011;70229;48.010;7.852;2023-07-13T16:42:47;4.30;;;1.40;;
80705;SDS011;70229;48.010;7.852;2023-07-13T16:45:13;3.20;;;1.23;;
80705;SDS011;70229;48.010;7.852;2023-07-13T16:47:40;4.38;;;1.10;;
80705;SDS011;70229;48.010;7.852;2023-07-13T16:50:30;2.35;;;1.23;;
80705;SDS011;70229;48.010;7.852;2023-07-13T16:52:58;2.85;;;1.20;;
80705;SDS011;70229;48.010;7.852;2023-07-13T16:55:25;5.07;;;1.40;;
80705;SDS011;70229;48.010;7.852;2023-07-13T16:57:55;4.28;;;1.38;;
80705;SDS011;70229;48.010;7.852;2023-07-13T17:00:26;2.20;;;1.30;;
80705;SDS011;70229;48.010;7.852;2023-07-13T17:03:00;3.00;;;1.42;;
80705;SDS011;70229;48.010;7.852;2023-07-13T17:05:30;2.10;;;1.13;;
80705;SDS011;70229;48.010;7.852;2023-07-13T17:08:03;1.48;;;1.10;;
80705;SDS011;70229;48.010;7.852;2023-07-13T17:10:39;3.90;;;1.23;;
80705;SDS011;70229;48.010;7.852;2023-07-13T17:13:09;3.28;;;1.25;;
80705;SDS011;70229;48.010;7.852;2023-07-13T17:15:35;6.75;;;1.58;;
80705;SDS011;70229;48.010;7.852;2023-07-13T17:18:02;6.85;;;1.77;;
80705;SDS011;70229;48.010;7.852;2023-07-13T17:20:33;3.40;;;1.48;;
80705;SDS011;70229;48.010;7.852;2023-07-13T17:23:11;9.85;;;1.85;;
80705;SDS011;70229;48.010;7.852;2023-07-13T17:25:49;3.33;;;1.30;;
80705;SDS011;70229;48.010;7.852;2023-07-13T17:28:19;5.60;;;1.80;;
80705;SDS011;70229;48.010;7.852;2023-07-13T17:30:46;3.63;;;1.42;;
80705;SDS011;70229;48.010;7.852;2023-07-13T17:33:25;3.65;;;1.45;;
80705;SDS011;70229;48.010;7.852;2023-07-13T17:35:55;3.47;;;1.20;;
80705;SDS011;70229;48.010;7.852;2023-07-13T17:38:22;5.25;;;1.42;;
80705;SDS011;70229;48.010;7.852;2023-07-13T17:40:54;3.75;;;1.42;;
80705;SDS011;70229;48.010;7.852;2023-07-13T17:43:19;2.63;;;1.23;;
80705;SDS011;70229;48.010;7.852;2023-07-13T17:45:45;7.22;;;1.60;;
80705;SDS011;70229;48.010;7.852;2023-07-13T17:48:10;3.22;;;1.05;;
80705;SDS011;70229;48.010;7.852;2023-07-13T17:50:36;2.83;;;1.15;;
80705;SDS011;70229;48.010;7.852;2023-07-13T17:53:19;5.07;;;1.30;;
80705;SDS011;70229;48.010;7.852;2023-07-13T17:55:45;4.53;;;1.27;;
80705;SDS011;70229;48.010;7.852;2023-07-13T17:58:16;2.17;;;1.13;;
80705;SDS011;70229;48.010;7.852;2023-07-13T18:00:44;4.68;;;1.40;;
80705;SDS011;70229;48.010;7.852;2023-07-13T18:03:24;5.20;;;1.80;;
80705;SDS011;70229;48.010;7.852;2023-07-13T18:05:56;5.32;;;1.20;;
80705;SDS011;70229;48.010;7.852;2023-07-13T18:08:25;4.80;;;1.50;;
80705;SDS011;70229;48.010;7.852;2023-07-13T18:10:53;4.80;;;1.30;;
80705;SDS011;70229;48.010;7.852;2023-07-13T18:13:21;7.13;;;2.08;;
80705;SDS011;70229;48.010;7.852;2023-07-13T18:15:47;3.80;;;1.52;;
80705;SDS011;70229;48.010;7.852;2023-07-13T18:18:13;3.35;;;1.20;;
80705;SDS011;70229;48.010;7.852;2023-07-13T18:20:39;3.92;;;1.60;;
80705;SDS011;70229;48.010;7.852;2023-07-13T18:23:10;8.00;;;3.42;;
80705;SDS011;70229;48.010;7.852;2023-07-13T18:25:44;8.32;;;5.90;;
80705;SDS011;70229;48.010;7.852;2023-07-13T18:28:12;9.50;;;4.35;;
80705;SDS011;70229;48.010;7.852;2023-07-13T18:30:39;10.57;;;5.63;;
80705;SDS011;70229;48.010;7.852;2023-07-13T18:33:08;11.70;;;5.43;;
80705;SDS011;70229;48.010;7.852;2023-07-13T18:35:42;7.28;;;3.70;;
80705;SDS011;70229;48.010;7.852;2023-07-13T18:38:10;7.15;;;4.28;;
80705;SDS011;70229;48.010;7.852;2023-07-13T18:40:45;6.40;;;4.22;;
80705;SDS011;70229;48.010;7.852;2023-07-13T18:43:11;5.68;;;3.20;;
80705;SDS011;70229;48.010;7.852;2023-07-13T18:45:37;5.30;;;1.85;;
80705;SDS011;70229;48.010;7.852;2023-07-13T18:48:04;6.63;;;1.95;;
80705;SDS011;70229;48.010;7.852;2023-07-13T18:50:34;6.22;;;2.63;;
80705;SDS011;70229;48.010;7.852;2023-07-13T18:53:07;4.15;;;1.88;;
80705;SDS011;70229;48.010;7.852;2023-07-13T18:55:40;5.40;;;1.95;;
80705;SDS011;70229;48.010;7.852;2023-07-13T18:58:06;3.20;;;1.20;;
80705;SDS011;70229;48.010;7.852;2023-07-13T19:00:32;3.13;;;1.40;;
80705;SDS011;70229;48.010;7.852;2023-07-13T19:02:58;6.78;;;1.90;;
80705;SDS011;70229;48.010;7.852;2023-07-13T19:05:25;2.45;;;0.98;;
80705;SDS011;70229;48.010;7.852;2023-07-13T19:07:52;3.28;;;0.98;;
80705;SDS011;70229;48.010;7.852;2023-07-13T19:10:19;4.88;;;1.33;;
80705;SDS011;70229;48.010;7.852;2023-07-13T19:12:47;4.65;;;1.95;;
80705;SDS011;70229;48.010;7.852;2023-07-13T19:15:20;3.60;;;1.55;;
80705;SDS011;70229;48.010;7.852;2023-07-13T19:17:50;6.65;;;1.85;;
80705;SDS011;70229;48.010;7.852;2023-07-13T19:20:16;8.65;;;1.67;;
80705;SDS011;70229;48.010;7.852;2023-07-13T19:22:48;3.28;;;1.50;;
80705;SDS011;70229;48.010;7.852;2023-07-13T19:25:18;8.00;;;1.55;;
80705;SDS011;70229;48.010;7.852;2023-07-13T19:27:45;3.45;;;1.70;;
80705;SDS011;70229;48.010;7.852;2023-07-13T19:30:13;6.32;;;1.75;;
80705;SDS011;70229;48.010;7.852;2023-07-13T19:32:40;4.97;;;1.60;;
80705;SDS011;70229;48.010;7.852;2023-07-13T19:35:06;6.18;;;1.98;;
80705;SDS011;70229;48.010;7.852;2023-07-13T19:37:33;5.32;;;2.22;;
80705;SDS011;70229;48.010;7.852;2023-07-13T19:40:04;7.53;;;1.73;;
80705;SDS011;70229;48.010;7.852;2023-07-13T19:42:39;6.00;;;1.75;;
80705;SDS011;70229;48.010;7.852;2023-07-13T19:45:07;5.38;;;1.67;;
80705;SDS011;70229;48.010;7.852;2023-07-13T19:47:39;3.83;;;1.50;;
80705;SDS011;70229;48.010;7.852;2023-07-13T19:50:05;5.00;;;1.70;;
80705;SDS011;70229;48.010;7.852;2023-07-13T19:52:31;3.80;;;1.77;;
80705;SDS011;70229;48.010;7.852;2023-07-13T19:54:57;8.32;;;2.33;;
80705;SDS011;70229;48.010;7.852;2023-07-13T19:57:27;4.15;;;1.55;;
80705;SDS011;70229;48.010;7.852;2023-07-13T19:59:54;4.88;;;1.60;;
80705;SDS011;70229;48.010;7.852;2023-07-13T20:02:22;3.33;;;1.83;;
80705;SDS011;70229;48.010;7.852;2023-07-13T20:04:49;3.92;;;1.73;;
80705;SDS011;70229;48.010;7.852;2023-07-13T20:07:19;3.55;;;1.55;;
80705;SDS011;70229;48.010;7.852;2023-07-13T20:09:46;5.53;;;1.73;;
80705;SDS011;70229;48.010;7.852;2023-07-13T20:12:21;3.42;;;1.52;;
80705;SDS011;70229;48.010;7.852;2023-07-13T20:14:49;4.38;;;1.80;;
80705;SDS011;70229;48.010;7.852;2023-07-13T20:19:51;4.40;;;1.80;;
80705;SDS011;70229;48.010;7.852;2023-07-13T20:22:17;10.43;;;2.08;;
80705;SDS011;70229;48.010;7.852;2023-07-13T20:24:43;3.22;;;1.50;;
80705;SDS011;70229;48.010;7.852;2023-07-13T20:27:09;2.95;;;1.58;;
80705;SDS011;70229;48.010;7.852;2023-07-13T20:29:35;5.05;;;1.75;;
80705;SDS011;70229;48.010;7.852;2023-07-13T20:32:00;4.10;;;1.83;;
80705;SDS011;70229;48.010;7.852;2023-07-13T20:34:29;3.80;;;1.33;;
80705;SDS011;70229;48.010;7.852;2023-07-13T20:37:01;7.78;;;1.83;;
80705;SDS011;70229;48.010;7.852;2023-07-13T20:39:38;3.10;;;1.60;;
80705;SDS011;70229;48.010;7.852;2023-07-13T20:42:08;5.05;;;1.77;;
80705;SDS011;70229;48.010;7.852;2023-07-13T20:44:35;4.47;;;1.70;;
80705;SDS011;70229;48.010;7.852;2023-07-13T20:47:01;4.30;;;1.58;;
80705;SDS011;70229;48.010;7.852;2023-07-13T20:49:27;2.85;;;1.45;;
80705;SDS011;70229;48.010;7.852;2023-07-13T20:51:56;5.22;;;2.30;;
80705;SDS011;70229;48.010;7.852;2023-07-13T20:54:23;2.88;;;1.35;;
80705;SDS011;70229;48.010;7.852;2023-07-13T20:56:48;6.47;;;1.73;;
80705;SDS011;70229;48.010;7.852;2023-07-13T20:59:14;2.72;;;1.48;;
80705;SDS011;70229;48.010;7.852;2023-07-13T21:01:39;3.22;;;1.50;;
80705;SDS011;70229;48.010;7.852;2023-07-13T21:04:08;4.50;;;1.73;;
80705;SDS011;70229;48.010;7.852;2023-07-13T21:06:36;6.43;;;1.63;;
80705;SDS011;70229;48.010;7.852;2023-07-13T21:09:05;7.15;;;1.85;;
80705;SDS011;70229;48.010;7.852;2023-07-13T21:11:44;4.65;;;2.08;;
80705;SDS011;70229;48.010;7.852;2023-07-13T21:14:10;4.03;;;1.65;;
80705;SDS011;70229;48.010;7.852;2023-07-13T21:16:36;4.80;;;1.73;;
80705;SDS011;70229;48.010;7.852;2023-07-13T21:19:01;3.42;;;1.58;;
80705;SDS011;70229;48.010;7.852;2023-07-13T21:21:28;2.88;;;1.27;;
80705;SDS011;70229;48.010;7.852;2023-07-13T21:23:54;3.67;;;1.90;;
80705;SDS011;70229;48.010;7.852;2023-07-13T21:26:21;2.28;;;1.50;;
80705;SDS011;70229;48.010;7.852;2023-07-13T21:28:47;4.28;;;1.60;;
80705;SDS011;70229;48.010;7.852;2023-07-13T21:31:27;2.85;;;1.38;;
80705;SDS011;70229;48.010;7.852;2023-07-13T21:33:56;2.88;;;1.20;;
80705;SDS011;70229;48.010;7.852;2023-07-13T21:36:23;6.63;;;1.38;;
80705;SDS011;70229;48.010;7.852;2023-07-13T21:38:53;4.18;;;1.98;;
80705;SDS011;70229;48.010;7.852;2023-07-13T21:41:29;3.00;;;1.20;;
80705;SDS011;70229;48.010;7.852;2023-07-13T21:43:57;4.38;;;2.03;;
80705;SDS011;70229;48.010;7.852;2023-07-13T21:46:26;2.58;;;1.48;;
80705;SDS011;70229;48.010;7.852;2023-07-13T21:48:53;3.28;;;1.42;;
80705;SDS011;70229;48.010;7.852;2023-07-13T21:51:24;5.18;;;1.92;;
80705;SDS011;70229;48.010;7.852;2023-07-13T21:53:52;7.90;;;2.55;;
80705;SDS011;70229;48.010;7.852;2023-07-13T21:56:20;3.75;;;1.70;;
80705;SDS011;70229;48.010;7.852;2023-07-13T21:58:47;3.15;;;1.65;;
80705;SDS011;70229;48.010;7.852;2023-07-13T22:01:17;9.35;;;1.73;;
80705;SDS011;70229;48.010;7.852;2023-07-13T22:03:56;5.07;;;1.70;;
80705;SDS011;70229;48.010;7.852;2023-07-13T22:06:27;6.47;;;2.10;;
80705;SDS011;70229;48.010;7.852;2023-07-13T22:08:57;3.72;;;1.90;;
80705;SDS011;70229;48.010;7.852;2023-07-13T22:11:23;5.47;;;1.65;;
80705;SDS011;70229;48.010;7.852;2023-07-13T22:13:50;3.55;;;1.80;;
80705;SDS011;70229;48.010;7.852;2023-07-13T22:18:47;4.93;;;1.98;;
80705;SDS011;70229;48.010;7.852;2023-07-13T22:21:15;3.83;;;1.40;;
80705;SDS011;70229;48.010;7.852;2023-07-13T22:23:42;6.25;;;1.80;;
80705;SDS011;70229;48.010;7.852;2023-07-13T22:26:21;7.78;;;1.65;;
80705;SDS011;70229;48.010;7.852;2023-07-13T22:28:49;5.18;;;1.83;;
80705;SDS011;70229;48.010;7.852;2023-07-13T22:31:17;5.55;;;1.58;;
80705;SDS011;70229;48.010;7.852;2023-07-13T22:33:43;2.53;;;1.35;;
80705;SDS011;70229;48.010;7.852;2023-07-13T22:36:09;5.85;;;1.27;;
80705;SDS011;70229;48.010;7.852;2023-07-13T22:38:36;5.47;;;1.85;;
80705;SDS011;70229;48.010;7.852;2023-07-13T22:41:02;6.60;;;1.40;;
80705;SDS011;70229;48.010;7.852;2023-07-13T22:43:27;3.17;;;1.20;;
80705;SDS011;70229;48.010;7.852;2023-07-13T22:45:54;8.95;;;2.13;;
80705;SDS011;70229;48.010;7.852;2023-07-13T22:48:23;3.40;;;1.58;;
80705;SDS011;70229;48.010;7.852;2023-07-13T22:50:51;6.93;;;2.45;;
80705;SDS011;70229;48.010;7.852;2023-07-13T22:55:51;4.35;;;1.55;;
80705;SDS011;70229;48.010;7.852;2023-07-13T22:58:17;4.68;;;1.88;;